createdAt,value
2018-12-01T00:00:56.885Z,38.83
2018-12-01T00:03:26.481Z,39.60
2018-12-01T00:05:56.396Z,38.00
2018-12-01T00:08:26.441Z,38.13
2018-12-01T00:10:56.243Z,36.17
2018-12-01T00:13:26.137Z,37.00
2018-12-01T00:15:56.285Z,38.87
2018-12-01T00:18:26.271Z,40.07
2018-12-01T00:20:56.297Z,39.00
2018-12-01T00:23:26.199Z,42.50
2018-12-01T00:25:56.119Z,41.33
2018-12-01T00:28:25.944Z,42.33
2018-12-01T00:30:55.546Z,38.07
2018-12-01T00:33:25.257Z,41.73
2018-12-01T00:35:54.970Z,43.13
2018-12-01T00:38:24.456Z,47.87
2018-12-01T00:40:54.372Z,38.80
2018-12-01T00:43:24.286Z,37.47
2018-12-01T00:45:54.428Z,41.23
2018-12-01T00:48:24.624Z,44.00
2018-12-01T00:50:54.749Z,42.17
2018-12-01T00:53:25.385Z,38.90
2018-12-01T00:55:57.668Z,46.60
2018-12-01T00:58:28.188Z,50.43
2018-12-01T01:00:58.187Z,49.93
2018-12-01T01:03:28.411Z,58.47
2018-12-01T01:05:58.859Z,53.00
2018-12-01T01:08:28.866Z,49.27
2018-12-01T01:10:58.460Z,45.60
2018-12-01T01:13:28.482Z,47.80
2018-12-01T01:15:59.067Z,48.20
2018-12-01T01:18:29.452Z,43.83
2018-12-01T01:20:59.152Z,46.03
2018-12-01T01:23:29.360Z,44.03
2018-12-01T01:25:59.378Z,43.60
2018-12-01T01:28:29.085Z,43.67
2018-12-01T01:30:58.888Z,47.63
2018-12-01T01:33:32.090Z,45.37
2018-12-01T01:36:02.000Z,50.37
2018-12-01T01:38:31.845Z,50.43
2018-12-01T01:41:05.635Z,45.07
2018-12-01T01:43:36.165Z,46.77
2018-12-01T01:46:06.070Z,44.17
2018-12-01T01:48:35.886Z,46.63
2018-12-01T01:51:06.240Z,40.23
2018-12-01T01:53:36.014Z,42.07
2018-12-01T01:56:05.821Z,38.30
2018-12-01T01:58:35.325Z,48.87
2018-12-01T02:01:05.136Z,42.73
2018-12-01T02:03:35.043Z,44.10
2018-12-01T02:06:05.037Z,43.57
2018-12-01T02:08:35.001Z,41.40
2018-12-01T02:11:05.024Z,44.97
2018-12-01T02:13:35.037Z,42.90
2018-12-01T02:16:04.519Z,39.33
2018-12-01T02:18:34.036Z,41.83
2018-12-01T02:21:04.344Z,47.23
2018-12-01T02:23:34.275Z,46.90
2018-12-01T02:26:03.885Z,44.77
2018-12-01T02:28:33.675Z,41.17
2018-12-01T02:31:04.428Z,46.57
2018-12-01T02:33:34.235Z,39.47
2018-12-01T02:36:04.567Z,43.40
2018-12-01T02:38:34.576Z,45.47
2018-12-01T02:41:04.904Z,49.50
2018-12-01T02:43:34.839Z,46.97
2018-12-01T02:46:08.947Z,43.80
2018-12-01T02:48:38.743Z,41.50
2018-12-01T02:51:08.983Z,46.15
2018-12-01T02:53:38.984Z,45.83
2018-12-01T02:56:08.467Z,40.97
2018-12-01T02:58:38.612Z,42.23
2018-12-01T03:01:08.499Z,40.33
2018-12-01T03:03:39.337Z,46.13
2018-12-01T03:06:09.452Z,41.63
2018-12-01T03:08:39.468Z,46.10
2018-12-01T03:11:09.487Z,41.10
2018-12-01T03:13:39.299Z,39.10
2018-12-01T03:16:09.234Z,43.30
2018-12-01T03:18:39.438Z,41.60
2018-12-01T03:21:09.767Z,38.97
2018-12-01T03:23:39.989Z,43.53
2018-12-01T03:26:09.912Z,41.17
2018-12-01T03:28:40.221Z,36.40
2018-12-01T03:31:10.345Z,43.87
2018-12-01T03:33:40.786Z,41.63
2018-12-01T03:36:10.803Z,39.07
2018-12-01T03:38:40.951Z,39.30
2018-12-01T03:41:10.828Z,38.17
2018-12-01T03:43:40.515Z,38.17
2018-12-01T03:46:10.540Z,37.57
2018-12-01T03:48:40.474Z,33.53
2018-12-01T03:51:10.363Z,37.40
2018-12-01T03:53:40.280Z,34.93
2018-12-01T03:56:11.337Z,38.07
2018-12-01T03:58:41.253Z,34.83
2018-12-01T04:01:11.668Z,32.53
2018-12-01T04:03:42.003Z,35.97
2018-12-01T04:06:12.407Z,34.40
2018-12-01T04:08:43.253Z,34.53
2018-12-01T04:11:13.385Z,36.83
2018-12-01T04:13:44.009Z,34.23
2018-12-01T04:16:14.107Z,39.47
2018-12-01T04:18:44.346Z,35.33
2018-12-01T04:21:14.661Z,35.37
2018-12-01T04:23:44.676Z,39.83
2018-12-01T04:26:15.821Z,35.33
2018-12-01T04:28:45.953Z,37.37
2018-12-01T04:31:15.751Z,37.97
2018-12-01T04:33:45.793Z,40.70
2018-12-01T04:36:15.907Z,36.67
2018-12-01T04:38:45.613Z,32.43
2018-12-01T04:41:15.927Z,33.43
2018-12-01T04:43:45.516Z,38.67
2018-12-01T04:46:15.555Z,38.83
2018-12-01T04:48:46.038Z,38.30
2018-12-01T04:51:16.084Z,36.13
2018-12-01T04:53:46.216Z,32.73
2018-12-01T04:56:16.222Z,37.17
2018-12-01T04:58:46.450Z,39.10
2018-12-01T05:01:16.369Z,33.53
2018-12-01T05:03:46.194Z,33.57
2018-12-01T05:06:16.305Z,41.43
2018-12-01T05:08:46.400Z,39.33
2018-12-01T05:11:16.109Z,37.47
2018-12-01T05:13:46.264Z,37.10
2018-12-01T05:16:16.365Z,37.43
2018-12-01T05:18:46.583Z,41.37
2018-12-01T05:21:16.482Z,33.57
2018-12-01T05:23:46.218Z,34.53
2018-12-01T05:26:16.020Z,38.77
2018-12-01T05:28:45.938Z,41.23
2018-12-01T05:31:15.950Z,39.10
2018-12-01T05:33:45.974Z,39.57
2018-12-01T05:36:15.662Z,39.20
2018-12-01T05:38:45.779Z,36.33
2018-12-01T05:41:15.792Z,36.43
2018-12-01T05:43:45.926Z,38.13
2018-12-01T05:46:15.953Z,39.27
2018-12-01T05:48:46.368Z,34.93
2018-12-01T05:51:16.288Z,40.27
2018-12-01T05:53:46.388Z,41.83
2018-12-01T05:56:16.082Z,39.90
2018-12-01T05:58:46.422Z,49.23
2018-12-01T06:01:17.045Z,48.90
2018-12-01T06:03:47.683Z,46.20
2018-12-01T06:06:17.500Z,41.93
2018-12-01T06:08:48.438Z,40.20
2018-12-01T06:11:18.790Z,40.73
2018-12-01T06:13:49.214Z,43.43
2018-12-01T06:16:19.434Z,57.80
2018-12-01T06:18:49.422Z,51.50
2018-12-01T06:21:19.540Z,54.93
2018-12-01T06:23:49.865Z,55.23
2018-12-01T06:26:20.597Z,50.77
2018-12-01T06:28:50.510Z,53.97
2018-12-01T06:31:24.217Z,42.23
2018-12-01T06:34:03.352Z,48.47
2018-12-01T06:36:33.156Z,46.53
2018-12-01T06:39:02.455Z,50.13
2018-12-01T06:41:32.048Z,56.67
2018-12-01T06:44:02.081Z,80.27
2018-12-01T06:46:32.019Z,86.07
2018-12-01T06:49:01.935Z,65.60
2018-12-01T06:51:31.954Z,69.40
2018-12-01T06:54:01.944Z,66.30
2018-12-01T06:56:31.982Z,77.93
2018-12-01T06:59:01.663Z,73.60
2018-12-01T07:01:31.914Z,69.47
2018-12-01T07:04:02.344Z,65.83
2018-12-01T07:06:32.224Z,66.40
2018-12-01T07:09:01.933Z,68.37
2018-12-01T07:11:33.019Z,63.13
2018-12-01T07:14:04.937Z,60.97
2018-12-01T07:16:34.954Z,55.13
2018-12-01T07:19:08.978Z,55.57
2018-12-01T07:21:38.882Z,57.33
2018-12-01T07:24:08.815Z,55.53
2018-12-01T07:26:39.111Z,56.70
2018-12-01T07:29:09.034Z,54.97
2018-12-01T07:31:39.252Z,54.27
2018-12-01T07:34:09.393Z,51.57
2018-12-01T07:36:40.818Z,57.00
2018-12-01T07:39:11.375Z,59.30
2018-12-01T07:41:41.269Z,55.87
2018-12-01T07:44:11.379Z,51.13
2018-12-01T07:46:42.024Z,57.50
2018-12-01T07:49:12.354Z,59.00
2018-12-01T07:51:42.376Z,58.20
2018-12-01T07:54:12.394Z,53.10
2018-12-01T07:56:41.992Z,52.97
2018-12-01T07:59:12.005Z,52.77
2018-12-01T08:01:42.036Z,60.67
2018-12-01T08:04:12.035Z,53.90
2018-12-01T08:06:42.148Z,57.90
2018-12-01T08:09:12.366Z,57.30
2018-12-01T08:11:42.817Z,46.97
2018-12-01T08:14:12.709Z,50.83
2018-12-01T08:16:42.835Z,57.53
2018-12-01T08:19:12.853Z,54.57
2018-12-01T08:21:43.295Z,56.67
2018-12-01T08:24:13.180Z,50.53
2018-12-01T08:26:43.316Z,44.57
2018-12-01T08:29:13.109Z,45.77
2018-12-01T08:31:42.920Z,45.57
2018-12-01T08:34:12.746Z,41.53
2018-12-01T08:36:42.858Z,44.57
2018-12-01T08:39:12.996Z,38.57
2018-12-01T08:41:42.996Z,41.47
2018-12-01T08:44:12.494Z,43.57
2018-12-01T08:46:42.918Z,41.37
2018-12-01T08:49:13.355Z,40.43
2018-12-01T08:51:43.155Z,45.00
2018-12-01T08:54:13.485Z,41.10
2018-12-01T08:56:43.496Z,40.90
2018-12-01T08:59:14.464Z,44.57
2018-12-01T09:01:45.056Z,46.27
2018-12-01T09:04:15.063Z,44.53
2018-12-01T09:06:45.203Z,41.70
2018-12-01T09:09:15.856Z,48.30
2018-12-01T09:11:45.978Z,46.50
2018-12-01T09:14:15.869Z,45.60
2018-12-01T09:16:46.415Z,50.47
2018-12-01T09:19:16.194Z,44.53
2018-12-01T09:21:45.923Z,48.90
2018-12-01T09:24:16.245Z,42.33
2018-12-01T09:26:46.460Z,48.63
2018-12-01T09:29:16.682Z,47.93
2018-12-01T09:31:46.393Z,50.73
2018-12-01T09:34:16.716Z,54.33
2018-12-01T09:36:46.837Z,57.60
2018-12-01T09:39:16.345Z,46.77
2018-12-01T09:41:46.664Z,49.10
2018-12-01T09:44:17.327Z,50.30
2018-12-01T09:46:46.897Z,48.47
2018-12-01T09:49:16.808Z,45.70
2018-12-01T09:51:48.476Z,49.00
2018-12-01T09:54:19.192Z,52.13
2018-12-01T09:56:49.625Z,46.73
2018-12-01T09:59:19.645Z,44.30
2018-12-01T10:01:50.686Z,48.23
2018-12-01T10:04:20.802Z,48.83
2018-12-01T10:06:51.439Z,49.17
2018-12-01T10:09:21.984Z,54.33
2018-12-01T10:11:51.874Z,48.87
2018-12-01T10:14:22.911Z,49.73
2018-12-01T10:16:53.436Z,51.30
2018-12-01T10:19:23.269Z,47.77
2018-12-01T10:21:54.097Z,48.57
2018-12-01T10:24:23.804Z,52.40
2018-12-01T10:26:53.921Z,45.20
2018-12-01T10:29:23.836Z,54.33
2018-12-01T10:31:53.344Z,56.90
2018-12-01T10:34:23.865Z,57.33
2018-12-01T10:36:54.402Z,55.57
2018-12-01T10:39:24.205Z,48.13
2018-12-01T10:41:56.075Z,54.13
2018-12-01T10:44:24.867Z,49.23
2018-12-01T10:46:54.768Z,50.17
2018-12-01T10:49:29.085Z,56.47
2018-12-01T10:51:58.904Z,58.93
2018-12-01T10:54:28.810Z,50.27
2018-12-01T10:56:58.626Z,50.97
2018-12-01T10:59:28.549Z,57.20
2018-12-01T11:02:02.658Z,52.80
2018-12-01T11:04:36.569Z,49.80
2018-12-01T11:07:06.891Z,58.77
2018-12-01T11:09:37.205Z,57.67
2018-12-01T11:12:10.022Z,60.30
2018-12-01T11:14:40.927Z,65.20
2018-12-01T11:17:12.385Z,63.00
2018-12-01T11:19:44.775Z,57.77
2018-12-01T11:22:15.796Z,62.37
2018-12-01T11:24:46.655Z,63.07
2018-12-01T11:27:19.401Z,59.57
2018-12-01T11:29:50.975Z,64.73
2018-12-01T11:32:21.483Z,69.60
2018-12-01T11:34:52.016Z,68.70
2018-12-01T11:37:21.854Z,71.50
2018-12-01T11:39:55.943Z,72.60
2018-12-01T11:42:25.853Z,73.20
2018-12-01T11:44:56.921Z,72.77
2018-12-01T11:47:25.788Z,68.97
2018-12-01T11:49:55.591Z,70.30
2018-12-01T11:52:25.837Z,73.13
2018-12-01T11:54:58.215Z,70.90
2018-12-01T11:57:28.830Z,64.80
2018-12-01T11:59:59.036Z,69.43
2018-12-01T12:02:30.072Z,68.23
2018-12-01T12:05:00.017Z,69.30
2018-12-01T12:07:36.373Z,70.47
2018-12-01T12:10:10.940Z,77.17
2018-12-01T12:12:40.898Z,74.23
2018-12-01T12:15:11.329Z,79.57
2018-12-01T12:17:41.250Z,69.13
2018-12-01T12:20:11.977Z,73.23
2018-12-01T12:22:41.896Z,89.73
2018-12-01T12:25:12.632Z,82.63
2018-12-01T12:27:42.466Z,77.73
2018-12-01T12:30:13.265Z,71.37
2018-12-01T12:32:43.186Z,81.43
2018-12-01T12:35:13.818Z,75.83
2018-12-01T12:37:50.817Z,76.10
2018-12-01T12:40:33.622Z,85.93
2018-12-01T12:43:03.536Z,74.10
2018-12-01T12:45:33.855Z,85.13
2018-12-01T12:48:05.913Z,84.27
2018-12-01T12:50:35.926Z,89.93
2018-12-01T12:53:06.577Z,85.83
2018-12-01T12:55:36.783Z,82.87
2018-12-01T12:58:09.378Z,96.27
2018-12-01T13:00:40.219Z,104.87
2018-12-01T13:03:10.951Z,104.93
2018-12-01T13:05:42.789Z,89.47
2018-12-01T13:08:14.165Z,100.07
2018-12-01T13:10:45.274Z,92.20
2018-12-01T13:13:16.045Z,107.90
2018-12-01T13:15:46.659Z,101.37
2018-12-01T13:18:16.983Z,98.30
2018-12-01T13:20:48.336Z,102.97
2018-12-01T13:23:18.960Z,103.30
2018-12-01T13:25:49.056Z,100.53
2018-12-01T13:28:23.601Z,97.90
2018-12-01T13:30:54.940Z,91.30
2018-12-01T13:33:25.965Z,116.03
2018-12-01T13:35:56.309Z,111.03
2018-12-01T13:38:26.307Z,108.07
2018-12-01T13:40:56.018Z,110.13
2018-12-01T13:43:25.954Z,104.10
2018-12-01T13:45:55.866Z,114.00
2018-12-01T13:48:25.870Z,106.93
2018-12-01T13:50:56.006Z,98.70
2018-12-01T13:53:26.001Z,108.77
2018-12-01T13:55:55.504Z,111.63
2018-12-01T13:58:25.015Z,108.60
2018-12-01T14:00:54.934Z,120.10
2018-12-01T14:03:24.954Z,110.27
2018-12-01T14:05:54.871Z,111.93
2018-12-01T14:08:26.033Z,118.47
2018-12-01T14:10:56.050Z,116.73
2018-12-01T14:13:25.945Z,101.53
2018-12-01T14:15:55.965Z,102.60
2018-12-01T14:18:25.864Z,126.80
2018-12-01T14:20:55.886Z,116.27
2018-12-01T14:23:26.029Z,108.50
2018-12-01T14:25:55.912Z,121.67
2018-12-01T14:28:25.937Z,94.10
2018-12-01T14:30:56.572Z,85.70
2018-12-01T14:33:26.582Z,103.30
2018-12-01T14:35:56.900Z,108.80
2018-12-01T14:38:27.322Z,104.13
2018-12-01T14:40:57.956Z,113.13
2018-12-01T14:43:27.876Z,109.50
2018-12-01T14:45:58.218Z,131.33
2018-12-01T14:48:28.934Z,116.40
2018-12-01T14:50:59.286Z,115.77
2018-12-01T14:53:29.685Z,124.17
2018-12-01T14:55:59.796Z,123.20
2018-12-01T14:58:29.823Z,134.13
2018-12-01T15:00:59.939Z,106.93
2018-12-01T15:03:30.265Z,119.93
2018-12-01T15:06:00.484Z,146.10
2018-12-01T15:08:30.595Z,126.33
2018-12-01T15:11:01.243Z,114.40
2018-12-01T15:13:31.675Z,123.20
2018-12-01T15:16:01.985Z,114.97
2018-12-01T15:18:31.893Z,107.83
2018-12-01T15:21:02.014Z,113.10
2018-12-01T15:23:32.027Z,94.53
2018-12-01T15:26:01.725Z,112.80
2018-12-01T15:28:32.151Z,124.27
2018-12-01T15:31:01.862Z,110.00
2018-12-01T15:33:32.203Z,123.63
2018-12-01T15:36:02.505Z,112.03
2018-12-01T15:38:32.844Z,137.80
2018-12-01T15:41:02.957Z,107.17
2018-12-01T15:43:32.887Z,109.10
2018-12-01T15:46:02.884Z,131.87
2018-12-01T15:48:33.018Z,127.17
2018-12-01T15:51:03.445Z,113.77
2018-12-01T15:53:34.384Z,127.63
2018-12-01T15:56:05.002Z,103.47
2018-12-01T15:58:34.907Z,108.17
2018-12-01T16:01:05.555Z,99.80
2018-12-01T16:03:35.784Z,104.83
2018-12-01T16:06:05.611Z,110.63
2018-12-01T16:08:35.919Z,100.67
2018-12-01T16:11:06.119Z,105.60
2018-12-01T16:13:36.027Z,105.33
2018-12-01T16:16:08.403Z,102.47
2018-12-01T16:19:10.613Z,122.43
2018-12-01T16:21:41.023Z,96.93
2018-12-01T16:24:10.934Z,92.37
2018-12-01T16:26:40.826Z,115.90
2018-12-01T16:29:11.366Z,107.43
2018-12-01T16:31:41.365Z,99.80
2018-12-01T16:34:11.426Z,102.97
2018-12-01T16:36:41.411Z,111.07
2018-12-01T16:39:11.726Z,108.57
2018-12-01T16:41:41.766Z,110.43
2018-12-01T16:44:11.978Z,120.77
2018-12-01T16:46:42.009Z,90.10
2018-12-01T16:49:12.018Z,100.00
2018-12-01T16:51:42.050Z,119.50
2018-12-01T16:54:12.334Z,129.90
2018-12-01T16:56:42.365Z,132.60
2018-12-01T16:59:12.472Z,124.13
2018-12-01T17:01:42.502Z,133.70
2018-12-01T17:04:12.626Z,139.27
2018-12-01T17:06:42.943Z,123.77
2018-12-01T17:09:13.369Z,117.60
2018-12-01T17:11:43.186Z,110.30
2018-12-01T17:14:13.604Z,117.30
2018-12-01T17:16:43.872Z,127.53
2018-12-01T17:19:13.844Z,136.53
2018-12-01T17:21:44.173Z,129.30
2018-12-01T17:24:14.386Z,150.17
2018-12-01T17:26:44.411Z,155.00
2018-12-01T17:29:14.405Z,154.23
2018-12-01T17:31:44.448Z,146.03
2018-12-01T17:34:14.452Z,173.77
2018-12-01T17:36:44.457Z,158.80
2018-12-01T17:39:15.006Z,142.43
2018-12-01T17:41:44.937Z,261.43
2018-12-01T17:44:14.944Z,185.17
2018-12-01T17:46:45.027Z,155.10
2018-12-01T17:49:15.033Z,149.00
2018-12-01T17:51:45.276Z,161.63
2018-12-01T17:54:16.335Z,125.73
2018-12-01T17:56:46.146Z,111.67
2018-12-01T17:59:16.273Z,116.20
2018-12-01T18:01:47.411Z,140.70
2018-12-01T18:04:17.922Z,121.10
2018-12-01T18:06:48.350Z,137.97
2018-12-01T18:09:18.575Z,115.20
2018-12-01T18:11:48.897Z,119.43
2018-12-01T18:14:19.237Z,110.47
2018-12-01T18:16:50.565Z,104.97
2018-12-01T18:19:20.470Z,124.60
2018-12-01T18:21:50.386Z,123.67
2018-12-01T18:24:20.198Z,133.03
2018-12-01T18:26:50.252Z,124.83
2018-12-01T18:29:21.272Z,118.30
2018-12-01T18:31:51.896Z,117.27
2018-12-01T18:34:22.949Z,112.17
2018-12-01T18:36:53.023Z,105.17
2018-12-01T18:39:23.595Z,106.27
2018-12-01T18:41:53.489Z,100.70
2018-12-01T18:44:23.396Z,101.60
2018-12-01T18:46:53.418Z,99.30
2018-12-01T18:49:23.355Z,108.33
2018-12-01T18:51:53.251Z,111.93
2018-12-01T18:54:24.414Z,104.80
2018-12-01T18:56:54.738Z,113.47
2018-12-01T18:59:25.966Z,104.17
2018-12-01T19:01:55.985Z,109.07
2018-12-01T19:04:26.411Z,93.43
2018-12-01T19:06:56.424Z,100.77
2018-12-01T19:09:26.324Z,100.50
2018-12-01T19:11:56.146Z,105.07
2018-12-01T19:14:26.158Z,102.50
2018-12-01T19:16:56.404Z,99.70
2018-12-01T19:19:27.028Z,111.30
2018-12-01T19:21:57.144Z,109.60
2018-12-01T19:24:27.570Z,111.87
2018-12-01T19:26:57.585Z,112.40
2018-12-01T19:29:27.914Z,107.57
2018-12-01T19:31:58.361Z,100.97
2018-12-01T19:34:30.000Z,99.27
2018-12-01T19:37:00.818Z,98.03
2018-12-01T19:39:34.508Z,111.87
2018-12-01T19:42:06.043Z,103.90
2018-12-01T19:44:36.611Z,105.87
2018-12-01T19:47:12.664Z,109.67
2018-12-01T19:49:42.461Z,109.17
2018-12-01T19:52:12.906Z,113.40
2018-12-01T19:54:43.008Z,105.43
2018-12-01T19:57:13.375Z,107.60
2018-12-01T19:59:43.882Z,113.07
2018-12-01T20:02:13.666Z,106.60
2018-12-01T20:04:44.934Z,111.10
2018-12-01T20:07:15.168Z,111.23
2018-12-01T20:09:45.387Z,112.33
2018-12-01T20:12:15.176Z,123.00
2018-12-01T20:14:45.392Z,123.80
2018-12-01T20:17:17.373Z,112.83
2018-12-01T20:19:50.646Z,116.27
2018-12-01T20:22:23.955Z,109.73
2018-12-01T20:24:54.030Z,122.97
2018-12-01T20:27:24.406Z,120.20
2018-12-01T20:29:54.023Z,113.23
2018-12-01T20:32:24.023Z,109.87
2018-12-01T20:34:53.940Z,122.30
2018-12-01T20:37:24.158Z,119.60
2018-12-01T20:39:54.509Z,120.93
2018-12-01T20:42:26.034Z,109.87
2018-12-01T20:44:57.396Z,107.40
2018-12-01T20:47:27.481Z,97.80
2018-12-01T20:49:58.421Z,106.97
2018-12-01T20:52:28.131Z,121.03
2018-12-01T20:54:59.575Z,114.70
2018-12-01T20:57:31.046Z,121.10
2018-12-01T21:00:01.453Z,131.17
2018-12-01T21:02:32.390Z,124.07
2018-12-01T21:05:02.229Z,113.87
2018-12-01T21:07:32.767Z,120.20
2018-12-01T21:10:03.775Z,112.90
2018-12-01T21:12:37.371Z,123.43
2018-12-01T21:15:10.360Z,124.87
2018-12-01T21:17:41.826Z,123.30
2018-12-01T21:20:12.883Z,112.33
2018-12-01T21:22:43.482Z,121.73
2018-12-01T21:25:14.235Z,119.10
2018-12-01T21:27:43.930Z,130.57
2018-12-01T21:30:18.203Z,146.03
2018-12-01T21:32:48.804Z,146.27
2018-12-01T21:35:18.800Z,141.53
2018-12-01T21:37:48.915Z,171.77
2018-12-01T21:40:20.039Z,168.97
2018-12-01T21:42:50.198Z,177.07
2018-12-01T21:45:20.817Z,155.63
2018-12-01T21:47:50.925Z,138.70
2018-12-01T21:50:22.375Z,133.27
2018-12-01T21:52:53.321Z,119.60
2018-12-01T21:55:23.443Z,113.43
2018-12-01T21:57:54.396Z,106.70
2018-12-01T22:00:26.011Z,102.47
2018-12-01T22:02:58.019Z,107.73
2018-12-01T22:05:32.212Z,105.23
2018-12-01T22:08:02.339Z,99.77
2018-12-01T22:10:32.146Z,97.87
2018-12-01T22:13:01.958Z,107.17
2018-12-01T22:15:31.849Z,93.40
2018-12-01T22:18:01.452Z,96.33
2018-12-01T22:20:31.585Z,98.87
2018-12-01T22:23:01.835Z,96.70
2018-12-01T22:25:31.933Z,88.43
2018-12-01T22:28:02.355Z,97.00
2018-12-01T22:30:32.385Z,104.47
2018-12-01T22:33:02.367Z,93.63
2018-12-01T22:35:32.306Z,96.03
2018-12-01T22:38:02.406Z,98.67
2018-12-01T22:40:33.444Z,96.27
2018-12-01T22:43:04.409Z,103.13
2018-12-01T22:45:34.399Z,96.77
2018-12-01T22:48:05.500Z,91.77
2018-12-01T22:50:35.453Z,97.53
2018-12-01T22:53:05.370Z,91.60
2018-12-01T22:55:35.489Z,95.17
2018-12-01T22:58:10.021Z,91.93
2018-12-01T23:00:44.344Z,88.37
2018-12-01T23:03:14.253Z,88.93
2018-12-01T23:05:44.364Z,84.53
2018-12-01T23:08:18.169Z,84.20
2018-12-01T23:10:48.388Z,91.90
2018-12-01T23:13:18.410Z,91.07
2018-12-01T23:15:48.333Z,85.77
2018-12-01T23:18:18.966Z,85.17
2018-12-01T23:20:49.185Z,78.23
2018-12-01T23:23:19.306Z,81.97
2018-12-01T23:25:49.325Z,82.10
2018-12-01T23:28:19.951Z,82.40
2018-12-01T23:30:50.786Z,80.77
2018-12-01T23:33:25.207Z,89.27
2018-12-01T23:35:55.104Z,87.50
2018-12-01T23:38:24.819Z,78.80
2018-12-01T23:40:54.950Z,84.87
2018-12-01T23:43:25.484Z,82.63
2018-12-01T23:45:55.793Z,90.37
2018-12-01T23:48:26.016Z,87.33
2018-12-01T23:50:56.862Z,76.97
2018-12-01T23:53:27.285Z,77.83
2018-12-01T23:55:57.415Z,82.17
2018-12-01T23:58:27.316Z,78.70
